sensor_id;sensor_type;location;lat;lon;timestamp;P1;durP1;ratioP1;P2;durP2;ratioP2
42988;SDS011;28622;43.716;20.668;2022-07-29T00:00:45;2.65;;;1.67;;
42988;SDS011;28622;43.716;20.668;2022-07-29T00:03:11;2.38;;;1.45;;
42988;SDS011;28622;43.716;20.668;2022-07-29T00:05:39;4.63;;;1.55;;
42988;SDS011;28622;43.716;20.668;2022-07-29T00:08:05;5.93;;;1.60;;
42988;SDS011;28622;43.716;20.668;2022-07-29T00:10:32;6.70;;;2.17;;
42988;SDS011;28622;43.716;20.668;2022-07-29T00:12:58;2.15;;;1.42;;
42988;SDS011;28622;43.716;20.668;2022-07-29T00:15:23;3.05;;;1.42;;
42988;SDS011;28622;43.716;20.668;2022-07-29T00:17:50;2.55;;;1.52;;
42988;SDS011;28622;43.716;20.668;2022-07-29T00:20:16;1.42;;;1.20;;
42988;SDS011;28622;43.716;20.668;2022-07-29T00:22:41;3.65;;;1.50;;
42988;SDS011;28622;43.716;20.668;2022-07-29T00:25:07;6.22;;;1.60;;
42988;SDS011;28622;43.716;20.668;2022-07-29T00:27:34;3.47;;;1.60;;
42988;SDS011;28622;43.716;20.668;2022-07-29T00:30:01;2.35;;;1.55;;
42988;SDS011;28622;43.716;20.668;2022-07-29T00:32:28;3.60;;;2.22;;
42988;SDS011;28622;43.716;20.668;2022-07-29T00:34:54;5.43;;;1.60;;
42988;SDS011;28622;43.716;20.668;2022-07-29T00:37:38;2.15;;;1.60;;
42988;SDS011;28622;43.716;20.668;2022-07-29T00:40:04;2.85;;;1.70;;
42988;SDS011;28622;43.716;20.668;2022-07-29T00:42:40;3.47;;;1.70;;
42988;SDS011;28622;43.716;20.668;2022-07-29T00:45:10;2.50;;;1.50;;
42988;SDS011;28622;43.716;20.668;2022-07-29T00:47:37;2.25;;;1.60;;
42988;SDS011;28622;43.716;20.668;2022-07-29T00:50:03;1.38;;;1.20;;
42988;SDS011;28622;43.716;20.668;2022-07-29T00:52:30;2.97;;;1.90;;
42988;SDS011;28622;43.716;20.668;2022-07-29T00:54:57;4.60;;;2.05;;
42988;SDS011;28622;43.716;20.668;2022-07-29T00:57:23;3.30;;;1.90;;
42988;SDS011;28622;43.716;20.668;2022-07-29T00:59:49;3.53;;;1.60;;
42988;SDS011;28622;43.716;20.668;2022-07-29T01:02:14;3.03;;;1.48;;
42988;SDS011;28622;43.716;20.668;2022-07-29T01:04:40;3.25;;;1.70;;
42988;SDS011;28622;43.716;20.668;2022-07-29T01:07:06;2.70;;;1.60;;
42988;SDS011;28622;43.716;20.668;2022-07-29T01:09:32;3.30;;;1.98;;
42988;SDS011;28622;43.716;20.668;2022-07-29T01:12:01;2.72;;;1.95;;
42988;SDS011;28622;43.716;20.668;2022-07-29T01:14:27;3.40;;;1.83;;
42988;SDS011;28622;43.716;20.668;2022-07-29T01:16:54;2.17;;;1.90;;
42988;SDS011;28622;43.716;20.668;2022-07-29T01:29:59;3.65;;;2.40;;
42988;SDS011;28622;43.716;20.668;2022-07-29T01:32:29;6.03;;;2.08;;
42988;SDS011;28622;43.716;20.668;2022-07-29T01:35:03;3.05;;;2.13;;
42988;SDS011;28622;43.716;20.668;2022-07-29T01:37:38;3.53;;;1.70;;
42988;SDS011;28622;43.716;20.668;2022-07-29T01:40:24;2.50;;;1.60;;
42988;SDS011;28622;43.716;20.668;2022-07-29T01:42:57;3.08;;;1.65;;
42988;SDS011;28622;43.716;20.668;2022-07-29T01:48:17;1.90;;;1.52;;
42988;SDS011;28622;43.716;20.668;2022-07-29T01:56:03;4.07;;;1.77;;
42988;SDS011;28622;43.716;20.668;2022-07-29T01:58:31;6.40;;;1.60;;
42988;SDS011;28622;43.716;20.668;2022-07-29T02:01:00;2.78;;;1.42;;
42988;SDS011;28622;43.716;20.668;2022-07-29T02:03:27;2.33;;;1.70;;
42988;SDS011;28622;43.716;20.668;2022-07-29T02:05:55;1.45;;;1.17;;
42988;SDS011;28622;43.716;20.668;2022-07-29T02:08:22;4.50;;;1.67;;
42988;SDS011;28622;43.716;20.668;2022-07-29T02:10:50;2.45;;;1.52;;
42988;SDS011;28622;43.716;20.668;2022-07-29T02:13:17;1.77;;;1.50;;
42988;SDS011;28622;43.716;20.668;2022-07-29T02:15:45;2.40;;;1.60;;
42988;SDS011;28622;43.716;20.668;2022-07-29T02:18:17;1.65;;;1.20;;
42988;SDS011;28622;43.716;20.668;2022-07-29T02:20:44;2.58;;;1.15;;
42988;SDS011;28622;43.716;20.668;2022-07-29T02:23:12;2.95;;;1.58;;
42988;SDS011;28622;43.716;20.668;2022-07-29T02:25:42;2.90;;;1.25;;
42988;SDS011;28622;43.716;20.668;2022-07-29T02:28:08;3.47;;;1.50;;
42988;SDS011;28622;43.716;20.668;2022-07-29T02:30:36;1.42;;;1.30;;
42988;SDS011;28622;43.716;20.668;2022-07-29T02:33:05;1.60;;;1.40;;
42988;SDS011;28622;43.716;20.668;2022-07-29T02:35:33;2.00;;;1.45;;
42988;SDS011;28622;43.716;20.668;2022-07-29T02:37:59;4.28;;;1.77;;
42988;SDS011;28622;43.716;20.668;2022-07-29T02:40:45;1.70;;;1.23;;
42988;SDS011;28622;43.716;20.668;2022-07-29T02:43:13;3.85;;;1.33;;
42988;SDS011;28622;43.716;20.668;2022-07-29T02:45:39;2.45;;;1.38;;
42988;SDS011;28622;43.716;20.668;2022-07-29T02:48:08;1.90;;;1.48;;
42988;SDS011;28622;43.716;20.668;2022-07-29T02:50:40;9.68;;;1.88;;
42988;SDS011;28622;43.716;20.668;2022-07-29T02:53:17;2.78;;;1.75;;
42988;SDS011;28622;43.716;20.668;2022-07-29T02:55:46;3.15;;;1.85;;
42988;SDS011;28622;43.716;20.668;2022-07-29T02:58:24;3.25;;;1.48;;
42988;SDS011;28622;43.716;20.668;2022-07-29T03:00:59;2.50;;;1.65;;
42988;SDS011;28622;43.716;20.668;2022-07-29T03:03:32;3.45;;;1.48;;
42988;SDS011;28622;43.716;20.668;2022-07-29T03:06:01;2.15;;;1.60;;
42988;SDS011;28622;43.716;20.668;2022-07-29T03:08:29;2.97;;;1.83;;
42988;SDS011;28622;43.716;20.668;2022-07-29T03:10:56;2.65;;;2.00;;
42988;SDS011;28622;43.716;20.668;2022-07-29T03:13:22;4.35;;;1.90;;
42988;SDS011;28622;43.716;20.668;2022-07-29T03:15:49;2.83;;;1.52;;
42988;SDS011;28622;43.716;20.668;2022-07-29T03:18:15;3.75;;;1.95;;
42988;SDS011;28622;43.716;20.668;2022-07-29T03:20:41;7.15;;;2.08;;
42988;SDS011;28622;43.716;20.668;2022-07-29T03:23:07;5.70;;;2.92;;
42988;SDS011;28622;43.716;20.668;2022-07-29T03:25:34;3.97;;;2.53;;
42988;SDS011;28622;43.716;20.668;2022-07-29T03:27:59;4.28;;;2.03;;
42988;SDS011;28622;43.716;20.668;2022-07-29T03:30:25;2.63;;;1.85;;
42988;SDS011;28622;43.716;20.668;2022-07-29T03:32:51;3.58;;;2.05;;
42988;SDS011;28622;43.716;20.668;2022-07-29T03:35:17;3.75;;;2.05;;
42988;SDS011;28622;43.716;20.668;2022-07-29T03:37:44;3.45;;;2.17;;
42988;SDS011;28622;43.716;20.668;2022-07-29T03:40:11;2.50;;;1.70;;
42988;SDS011;28622;43.716;20.668;2022-07-29T03:42:48;3.45;;;2.13;;
42988;SDS011;28622;43.716;20.668;2022-07-29T03:45:18;3.42;;;2.10;;
42988;SDS011;28622;43.716;20.668;2022-07-29T03:47:47;2.33;;;1.80;;
42988;SDS011;28622;43.716;20.668;2022-07-29T03:50:22;4.63;;;2.40;;
42988;SDS011;28622;43.716;20.668;2022-07-29T03:52:48;4.05;;;2.17;;
42988;SDS011;28622;43.716;20.668;2022-07-29T03:55:15;2.92;;;1.38;;
42988;SDS011;28622;43.716;20.668;2022-07-29T03:57:41;3.67;;;1.67;;
42988;SDS011;28622;43.716;20.668;2022-07-29T04:00:07;2.97;;;1.88;;
42988;SDS011;28622;43.716;20.668;2022-07-29T04:02:34;3.28;;;1.73;;
42988;SDS011;28622;43.716;20.668;2022-07-29T04:05:02;4.45;;;2.08;;
42988;SDS011;28622;43.716;20.668;2022-07-29T04:07:29;3.70;;;1.88;;
42988;SDS011;28622;43.716;20.668;2022-07-29T04:09:54;2.15;;;1.52;;
42988;SDS011;28622;43.716;20.668;2022-07-29T04:12:20;2.70;;;1.58;;
42988;SDS011;28622;43.716;20.668;2022-07-29T04:14:46;5.05;;;2.13;;
42988;SDS011;28622;43.716;20.668;2022-07-29T04:17:12;3.95;;;1.50;;
42988;SDS011;28622;43.716;20.668;2022-07-29T04:19:38;2.88;;;1.70;;
42988;SDS011;28622;43.716;20.668;2022-07-29T04:22:03;3.42;;;2.05;;
42988;SDS011;28622;43.716;20.668;2022-07-29T04:24:29;4.43;;;1.80;;
42988;SDS011;28622;43.716;20.668;2022-07-29T04:26:55;2.67;;;1.70;;
42988;SDS011;28622;43.716;20.668;2022-07-29T04:29:21;5.35;;;1.88;;
42988;SDS011;28622;43.716;20.668;2022-07-29T04:31:46;2.20;;;1.67;;
42988;SDS011;28622;43.716;20.668;2022-07-29T04:34:12;4.45;;;1.52;;
42988;SDS011;28622;43.716;20.668;2022-07-29T04:36:38;2.53;;;1.75;;
42988;SDS011;28622;43.716;20.668;2022-07-29T04:39:04;8.13;;;2.13;;
42988;SDS011;28622;43.716;20.668;2022-07-29T04:41:30;2.60;;;1.73;;
42988;SDS011;28622;43.716;20.668;2022-07-29T04:43:56;4.88;;;1.95;;
42988;SDS011;28622;43.716;20.668;2022-07-29T04:46:21;3.20;;;1.42;;
42988;SDS011;28622;43.716;20.668;2022-07-29T04:48:47;13.23;;;2.25;;
42988;SDS011;28622;43.716;20.668;2022-07-29T04:51:14;4.10;;;2.05;;
42988;SDS011;28622;43.716;20.668;2022-07-29T04:53:40;3.38;;;1.92;;
42988;SDS011;28622;43.716;20.668;2022-07-29T04:56:06;2.83;;;1.83;;
42988;SDS011;28622;43.716;20.668;2022-07-29T04:58:33;4.47;;;1.98;;
42988;SDS011;28622;43.716;20.668;2022-07-29T05:01:00;1.90;;;1.45;;
42988;SDS011;28622;43.716;20.668;2022-07-29T05:03:26;2.97;;;1.92;;
42988;SDS011;28622;43.716;20.668;2022-07-29T05:05:51;4.15;;;2.33;;
42988;SDS011;28622;43.716;20.668;2022-07-29T05:08:17;2.80;;;1.73;;
42988;SDS011;28622;43.716;20.668;2022-07-29T05:10:43;3.08;;;1.63;;
42988;SDS011;28622;43.716;20.668;2022-07-29T05:13:08;7.90;;;2.33;;
42988;SDS011;28622;43.716;20.668;2022-07-29T05:15:34;2.42;;;1.60;;
42988;SDS011;28622;43.716;20.668;2022-07-29T05:18:01;3.97;;;1.65;;
42988;SDS011;28622;43.716;20.668;2022-07-29T05:20:27;2.75;;;2.00;;
42988;SDS011;28622;43.716;20.668;2022-07-29T05:22:57;1.90;;;1.50;;
42988;SDS011;28622;43.716;20.668;2022-07-29T05:25:25;7.15;;;2.10;;
42988;SDS011;28622;43.716;20.668;2022-07-29T05:27:51;5.07;;;2.42;;
42988;SDS011;28622;43.716;20.668;2022-07-29T05:30:17;4.70;;;2.75;;
42988;SDS011;28622;43.716;20.668;2022-07-29T05:32:44;3.38;;;2.38;;
42988;SDS011;28622;43.716;20.668;2022-07-29T05:35:09;3.95;;;2.38;;
42988;SDS011;28622;43.716;20.668;2022-07-29T05:37:35;6.00;;;2.38;;
42988;SDS011;28622;43.716;20.668;2022-07-29T05:40:01;6.20;;;1.65;;
42988;SDS011;28622;43.716;20.668;2022-07-29T05:42:28;5.78;;;2.00;;
42988;SDS011;28622;43.716;20.668;2022-07-29T05:44:54;2.33;;;1.60;;
42988;SDS011;28622;43.716;20.668;2022-07-29T05:47:20;2.60;;;1.45;;
42988;SDS011;28622;43.716;20.668;2022-07-29T05:49:46;2.88;;;1.70;;
42988;SDS011;28622;43.716;20.668;2022-07-29T05:52:12;3.42;;;1.40;;
42988;SDS011;28622;43.716;20.668;2022-07-29T05:54:39;3.15;;;1.70;;
42988;SDS011;28622;43.716;20.668;2022-07-29T05:57:04;2.15;;;1.30;;
42988;SDS011;28622;43.716;20.668;2022-07-29T05:59:31;1.85;;;1.35;;
42988;SDS011;28622;43.716;20.668;2022-07-29T06:02:00;3.88;;;1.60;;
42988;SDS011;28622;43.716;20.668;2022-07-29T06:04:26;4.47;;;2.00;;
42988;SDS011;28622;43.716;20.668;2022-07-29T06:06:51;3.78;;;2.17;;
42988;SDS011;28622;43.716;20.668;2022-07-29T06:09:17;3.30;;;1.60;;
42988;SDS011;28622;43.716;20.668;2022-07-29T06:11:43;1.48;;;1.20;;
42988;SDS011;28622;43.716;20.668;2022-07-29T06:14:09;2.80;;;1.67;;
42988;SDS011;28622;43.716;20.668;2022-07-29T06:16:35;2.78;;;1.70;;
42988;SDS011;28622;43.716;20.668;2022-07-29T06:19:01;3.60;;;1.73;;
42988;SDS011;28622;43.716;20.668;2022-07-29T06:21:26;3.38;;;1.70;;
42988;SDS011;28622;43.716;20.668;2022-07-29T06:23:52;3.47;;;1.55;;
42988;SDS011;28622;43.716;20.668;2022-07-29T06:26:18;7.05;;;1.40;;
42988;SDS011;28622;43.716;20.668;2022-07-29T06:28:44;3.17;;;1.67;;
42988;SDS011;28622;43.716;20.668;2022-07-29T06:31:09;3.58;;;1.80;;
42988;SDS011;28622;43.716;20.668;2022-07-29T06:33:35;2.05;;;1.20;;
42988;SDS011;28622;43.716;20.668;2022-07-29T06:36:03;2.17;;;1.45;;
42988;SDS011;28622;43.716;20.668;2022-07-29T06:38:30;6.43;;;1.73;;
42988;SDS011;28622;43.716;20.668;2022-07-29T06:40:56;4.03;;;1.52;;
42988;SDS011;28622;43.716;20.668;2022-07-29T06:43:25;1.95;;;1.40;;
42988;SDS011;28622;43.716;20.668;2022-07-29T06:45:52;2.78;;;1.40;;
42988;SDS011;28622;43.716;20.668;2022-07-29T06:48:17;2.15;;;1.48;;
42988;SDS011;28622;43.716;20.668;2022-07-29T06:50:43;3.38;;;1.30;;
42988;SDS011;28622;43.716;20.668;2022-07-29T06:53:09;3.20;;;1.75;;
42988;SDS011;28622;43.716;20.668;2022-07-29T06:55:35;9.10;;;1.73;;
42988;SDS011;28622;43.716;20.668;2022-07-29T06:58:01;5.45;;;1.58;;
42988;SDS011;28622;43.716;20.668;2022-07-29T07:00:27;2.05;;;1.05;;
42988;SDS011;28622;43.716;20.668;2022-07-29T07:02:53;4.80;;;2.13;;
42988;SDS011;28622;43.716;20.668;2022-07-29T07:05:19;3.20;;;1.65;;
42988;SDS011;28622;43.716;20.668;2022-07-29T07:07:45;3.13;;;1.70;;
42988;SDS011;28622;43.716;20.668;2022-07-29T07:10:10;3.40;;;2.33;;
42988;SDS011;28622;43.716;20.668;2022-07-29T07:12:36;2.55;;;1.70;;
42988;SDS011;28622;43.716;20.668;2022-07-29T07:15:02;3.67;;;1.67;;
42988;SDS011;28622;43.716;20.668;2022-07-29T07:17:28;2.67;;;1.27;;
42988;SDS011;28622;43.716;20.668;2022-07-29T07:19:54;2.28;;;1.20;;
42988;SDS011;28622;43.716;20.668;2022-07-29T07:22:19;2.38;;;1.60;;
42988;SDS011;28622;43.716;20.668;2022-07-29T07:24:45;3.03;;;1.58;;
42988;SDS011;28622;43.716;20.668;2022-07-29T07:27:11;2.45;;;1.58;;
42988;SDS011;28622;43.716;20.668;2022-07-29T07:29:37;4.00;;;1.85;;
42988;SDS011;28622;43.716;20.668;2022-07-29T07:32:06;7.22;;;2.33;;
42988;SDS011;28622;43.716;20.668;2022-07-29T07:34:32;3.10;;;1.65;;
42988;SDS011;28622;43.716;20.668;2022-07-29T07:36:58;6.72;;;1.40;;
42988;SDS011;28622;43.716;20.668;2022-07-29T07:39:24;2.60;;;1.48;;
42988;SDS011;28622;43.716;20.668;2022-07-29T07:41:51;2.25;;;1.23;;
42988;SDS011;28622;43.716;20.668;2022-07-29T07:44:17;2.03;;;1.20;;
42988;SDS011;28622;43.716;20.668;2022-07-29T07:46:43;5.82;;;1.52;;
42988;SDS011;28622;43.716;20.668;2022-07-29T07:49:09;7.13;;;1.63;;
42988;SDS011;28622;43.716;20.668;2022-07-29T07:51:36;3.55;;;1.80;;
42988;SDS011;28622;43.716;20.668;2022-07-29T07:54:01;3.05;;;1.63;;
42988;SDS011;28622;43.716;20.668;2022-07-29T07:56:27;2.60;;;1.38;;
42988;SDS011;28622;43.716;20.668;2022-07-29T07:58:53;3.20;;;1.60;;
42988;SDS011;28622;43.716;20.668;2022-07-29T08:01:19;2.83;;;1.50;;
42988;SDS011;28622;43.716;20.668;2022-07-29T08:03:47;3.10;;;1.33;;
42988;SDS011;28622;43.716;20.668;2022-07-29T08:06:14;1.75;;;0.95;;
42988;SDS011;28622;43.716;20.668;2022-07-29T08:08:40;1.90;;;1.45;;
42988;SDS011;28622;43.716;20.668;2022-07-29T08:11:05;1.30;;;1.00;;
42988;SDS011;28622;43.716;20.668;2022-07-29T08:13:31;2.13;;;1.35;;
42988;SDS011;28622;43.716;20.668;2022-07-29T08:15:58;4.97;;;0.95;;
42988;SDS011;28622;43.716;20.668;2022-07-29T08:18:26;1.65;;;1.23;;
42988;SDS011;28622;43.716;20.668;2022-07-29T08:20:54;1.50;;;0.98;;
42988;SDS011;28622;43.716;20.668;2022-07-29T08:23:21;1.35;;;1.00;;
42988;SDS011;28622;43.716;20.668;2022-07-29T08:25:48;2.63;;;1.35;;
42988;SDS011;28622;43.716;20.668;2022-07-29T08:28:15;2.38;;;1.48;;
42988;SDS011;28622;43.716;20.668;2022-07-29T08:30:41;4.00;;;1.23;;
42988;SDS011;28622;43.716;20.668;2022-07-29T08:33:06;2.22;;;1.05;;
42988;SDS011;28622;43.716;20.668;2022-07-29T08:35:32;1.83;;;1.25;;
42988;SDS011;28622;43.716;20.668;2022-07-29T08:37:58;1.50;;;1.10;;
42988;SDS011;28622;43.716;20.668;2022-07-29T08:40:24;2.30;;;1.38;;
42988;SDS011;28622;43.716;20.668;2022-07-29T08:42:50;3.17;;;1.13;;
42988;SDS011;28622;43.716;20.668;2022-07-29T08:45:16;1.35;;;0.75;;
42988;SDS011;28622;43.716;20.668;2022-07-29T08:47:43;1.38;;;1.25;;
42988;SDS011;28622;43.716;20.668;2022-07-29T08:50:10;5.00;;;1.02;;
42988;SDS011;28622;43.716;20.668;2022-07-29T08:52:37;1.92;;;1.08;;
42988;SDS011;28622;43.716;20.668;2022-07-29T08:55:06;2.85;;;1.15;;
42988;SDS011;28622;43.716;20.668;2022-07-29T08:57:34;4.93;;;1.10;;
42988;SDS011;28622;43.716;20.668;2022-07-29T09:00:03;2.65;;;1.42;;
42988;SDS011;28622;43.716;20.668;2022-07-29T09:02:33;2.85;;;0.90;;
42988;SDS011;28622;43.716;20.668;2022-07-29T09:05:04;1.80;;;1.05;;
42988;SDS011;28622;43.716;20.668;2022-07-29T09:07:30;1.75;;;1.20;;
42988;SDS011;28622;43.716;20.668;2022-07-29T09:09:56;1.95;;;1.17;;
42988;SDS011;28622;43.716;20.668;2022-07-29T09:12:22;1.88;;;1.17;;
42988;SDS011;28622;43.716;20.668;2022-07-29T09:14:50;2.53;;;1.20;;
42988;SDS011;28622;43.716;20.668;2022-07-29T09:17:16;1.90;;;1.10;;
42988;SDS011;28622;43.716;20.668;2022-07-29T09:19:42;3.30;;;1.20;;
42988;SDS011;28622;43.716;20.668;2022-07-29T09:22:08;2.22;;;1.33;;
42988;SDS011;28622;43.716;20.668;2022-07-29T09:27:25;2.72;;;1.17;;
42988;SDS011;28622;43.716;20.668;2022-07-29T09:30:07;2.42;;;1.30;;
42988;SDS011;28622;43.716;20.668;2022-07-29T09:32:57;2.08;;;1.10;;
42988;SDS011;28622;43.716;20.668;2022-07-29T09:35:26;2.22;;;1.20;;
42988;SDS011;28622;43.716;20.668;2022-07-29T09:37:53;2.70;;;0.85;;
42988;SDS011;28622;43.716;20.668;2022-07-29T09:40:23;3.25;;;1.23;;
42988;SDS011;28622;43.716;20.668;2022-07-29T09:42:53;4.00;;;1.13;;
42988;SDS011;28622;43.716;20.668;2022-07-29T09:45:27;1.88;;;1.25;;
42988;SDS011;28622;43.716;20.668;2022-07-29T09:47:53;1.77;;;1.10;;
42988;SDS011;28622;43.716;20.668;2022-07-29T09:50:20;1.92;;;1.10;;
42988;SDS011;28622;43.716;20.668;2022-07-29T09:52:52;2.80;;;1.23;;
42988;SDS011;28622;43.716;20.668;2022-07-29T09:55:20;1.48;;;1.10;;
42988;SDS011;28622;43.716;20.668;2022-07-29T09:57:46;2.17;;;0.90;;
42988;SDS011;28622;43.716;20.668;2022-07-29T10:00:14;2.92;;;1.48;;
42988;SDS011;28622;43.716;20.668;2022-07-29T10:02:43;1.63;;;1.05;;
42988;SDS011;28622;43.716;20.668;2022-07-29T10:05:16;1.27;;;0.98;;
42988;SDS011;28622;43.716;20.668;2022-07-29T10:10:10;1.63;;;1.23;;
42988;SDS011;28622;43.716;20.668;2022-07-29T10:12:51;2.33;;;1.17;;
42988;SDS011;28622;43.716;20.668;2022-07-29T10:15:22;4.57;;;1.13;;
42988;SDS011;28622;43.716;20.668;2022-07-29T10:17:50;0.93;;;0.73;;
42988;SDS011;28622;43.716;20.668;2022-07-29T10:20:16;1.20;;;0.88;;
42988;SDS011;28622;43.716;20.668;2022-07-29T10:22:43;8.38;;;1.30;;
42988;SDS011;28622;43.716;20.668;2022-07-29T10:25:09;2.22;;;1.48;;
42988;SDS011;28622;43.716;20.668;2022-07-29T10:27:36;2.78;;;1.40;;
42988;SDS011;28622;43.716;20.668;2022-07-29T10:30:05;1.75;;;1.17;;
42988;SDS011;28622;43.716;20.668;2022-07-29T10:32:37;1.95;;;1.40;;
42988;SDS011;28622;43.716;20.668;2022-07-29T10:43:51;1.85;;;1.15;;
42988;SDS011;28622;43.716;20.668;2022-07-29T10:46:26;2.17;;;1.15;;
42988;SDS011;28622;43.716;20.668;2022-07-29T10:49:13;1.30;;;1.13;;
42988;SDS011;28622;43.716;20.668;2022-07-29T10:54:18;1.27;;;0.80;;
42988;SDS011;28622;43.716;20.668;2022-07-29T10:57:17;2.00;;;1.10;;
42988;SDS011;28622;43.716;20.668;2022-07-29T10:59:46;2.38;;;1.45;;
42988;SDS011;28622;43.716;20.668;2022-07-29T11:05:05;2.03;;;0.88;;
42988;SDS011;28622;43.716;20.668;2022-07-29T11:07:33;4.65;;;1.38;;
42988;SDS011;28622;43.716;20.668;2022-07-29T11:22:56;2.17;;;1.45;;
42988;SDS011;28622;43.716;20.668;2022-07-29T11:25:22;2.38;;;1.02;;
42988;SDS011;28622;43.716;20.668;2022-07-29T11:27:49;3.05;;;1.30;;
42988;SDS011;28622;43.716;20.668;2022-07-29T11:30:16;6.18;;;1.30;;
42988;SDS011;28622;43.716;20.668;2022-07-29T11:32:42;2.70;;;1.17;;
42988;SDS011;28622;43.716;20.668;2022-07-29T11:35:11;1.35;;;0.82;;
42988;SDS011;28622;43.716;20.668;2022-07-29T11:37:42;1.90;;;1.08;;
42988;SDS011;28622;43.716;20.668;2022-07-29T11:40:09;3.60;;;1.10;;
42988;SDS011;28622;43.716;20.668;2022-07-29T11:42:37;1.92;;;1.10;;
42988;SDS011;28622;43.716;20.668;2022-07-29T11:45:05;4.00;;;2.00;;
42988;SDS011;28622;43.716;20.668;2022-07-29T11:50:34;2.10;;;1.23;;
42988;SDS011;28622;43.716;20.668;2022-07-29T11:53:02;4.55;;;1.30;;
42988;SDS011;28622;43.716;20.668;2022-07-29T11:55:35;4.20;;;1.05;;
42988;SDS011;28622;43.716;20.668;2022-07-29T11:58:04;1.85;;;1.38;;
42988;SDS011;28622;43.716;20.668;2022-07-29T12:05:51;1.75;;;1.30;;
42988;SDS011;28622;43.716;20.668;2022-07-29T12:08:18;1.70;;;1.13;;
42988;SDS011;28622;43.716;20.668;2022-07-29T12:10:47;1.60;;;1.20;;
42988;SDS011;28622;43.716;20.668;2022-07-29T12:13:15;2.40;;;1.30;;
42988;SDS011;28622;43.716;20.668;2022-07-29T12:15:51;1.48;;;1.13;;
42988;SDS011;28622;43.716;20.668;2022-07-29T12:18:18;1.05;;;0.95;;
42988;SDS011;28622;43.716;20.668;2022-07-29T12:20:47;2.17;;;1.45;;
42988;SDS011;28622;43.716;20.668;2022-07-29T12:23:21;1.63;;;1.20;;
42988;SDS011;28622;43.716;20.668;2022-07-29T12:25:47;2.55;;;1.65;;
42988;SDS011;28622;43.716;20.668;2022-07-29T12:28:13;1.73;;;1.20;;
42988;SDS011;28622;43.716;20.668;2022-07-29T12:30:47;2.17;;;1.50;;
42988;SDS011;28622;43.716;20.668;2022-07-29T12:33:24;1.73;;;1.02;;
42988;SDS011;28622;43.716;20.668;2022-07-29T12:35:59;2.30;;;1.10;;
42988;SDS011;28622;43.716;20.668;2022-07-29T12:38:26;2.78;;;1.77;;
42988;SDS011;28622;43.716;20.668;2022-07-29T12:40:53;2.28;;;1.40;;
42988;SDS011;28622;43.716;20.668;2022-07-29T12:43:20;2.65;;;1.20;;
42988;SDS011;28622;43.716;20.668;2022-07-29T12:45:50;1.77;;;1.10;;
42988;SDS011;28622;43.716;20.668;2022-07-29T12:48:31;3.08;;;1.35;;
42988;SDS011;28622;43.716;20.668;2022-07-29T12:51:07;2.22;;;1.48;;
42988;SDS011;28622;43.716;20.668;2022-07-29T12:53:35;1.88;;;1.15;;
42988;SDS011;28622;43.716;20.668;2022-07-29T12:56:02;4.75;;;1.55;;
42988;SDS011;28622;43.716;20.668;2022-07-29T13:01:03;2.67;;;1.40;;
42988;SDS011;28622;43.716;20.668;2022-07-29T13:03:29;2.70;;;1.70;;
42988;SDS011;28622;43.716;20.668;2022-07-29T13:11:37;1.85;;;1.13;;
42988;SDS011;28622;43.716;20.668;2022-07-29T13:14:04;7.72;;;1.70;;
42988;SDS011;28622;43.716;20.668;2022-07-29T13:16:31;1.75;;;1.27;;
42988;SDS011;28622;43.716;20.668;2022-07-29T13:19:11;2.95;;;1.38;;
42988;SDS011;28622;43.716;20.668;2022-07-29T13:21:37;3.70;;;1.50;;
42988;SDS011;28622;43.716;20.668;2022-07-29T13:24:05;2.35;;;1.60;;
42988;SDS011;28622;43.716;20.668;2022-07-29T13:26:31;1.90;;;1.23;;
42988;SDS011;28622;43.716;20.668;2022-07-29T13:28:57;1.63;;;1.33;;
42988;SDS011;28622;43.716;20.668;2022-07-29T13:31:23;1.85;;;1.27;;
42988;SDS011;28622;43.716;20.668;2022-07-29T13:33:49;2.00;;;1.42;;
42988;SDS011;28622;43.716;20.668;2022-07-29T13:36:15;1.95;;;1.33;;
42988;SDS011;28622;43.716;20.668;2022-07-29T13:38:41;2.38;;;1.60;;
42988;SDS011;28622;43.716;20.668;2022-07-29T13:41:07;2.08;;;1.55;;
42988;SDS011;28622;43.716;20.668;2022-07-29T13:43:33;1.25;;;1.15;;
42988;SDS011;28622;43.716;20.668;2022-07-29T13:45:59;2.50;;;1.45;;
42988;SDS011;28622;43.716;20.668;2022-07-29T13:48:25;4.32;;;1.83;;
42988;SDS011;28622;43.716;20.668;2022-07-29T13:50:51;3.22;;;1.48;;
42988;SDS011;28622;43.716;20.668;2022-07-29T13:53:16;1.85;;;1.23;;
42988;SDS011;28622;43.716;20.668;2022-07-29T13:55:42;2.88;;;1.42;;
42988;SDS011;28622;43.716;20.668;2022-07-29T13:58:08;3.10;;;1.70;;
42988;SDS011;28622;43.716;20.668;2022-07-29T14:00:33;1.92;;;1.30;;
42988;SDS011;28622;43.716;20.668;2022-07-29T14:02:59;1.40;;;1.20;;
42988;SDS011;28622;43.716;20.668;2022-07-29T14:05:25;3.20;;;1.92;;
42988;SDS011;28622;43.716;20.668;2022-07-29T14:07:51;2.65;;;1.60;;
42988;SDS011;28622;43.716;20.668;2022-07-29T14:10:17;1.60;;;1.02;;
42988;SDS011;28622;43.716;20.668;2022-07-29T14:12:42;2.30;;;1.38;;
42988;SDS011;28622;43.716;20.668;2022-07-29T14:15:08;1.58;;;1.10;;
42988;SDS011;28622;43.716;20.668;2022-07-29T14:17:34;3.38;;;1.33;;
42988;SDS011;28622;43.716;20.668;2022-07-29T14:20:00;2.25;;;1.20;;
42988;SDS011;28622;43.716;20.668;2022-07-29T14:22:26;2.92;;;1.70;;
42988;SDS011;28622;43.716;20.668;2022-07-29T14:24:52;1.77;;;1.02;;
42988;SDS011;28622;43.716;20.668;2022-07-29T14:27:17;2.45;;;1.17;;
42988;SDS011;28622;43.716;20.668;2022-07-29T14:29:43;2.22;;;1.45;;
42988;SDS011;28622;43.716;20.668;2022-07-29T14:32:09;2.67;;;1.27;;
42988;SDS011;28622;43.716;20.668;2022-07-29T14:34:36;1.63;;;1.15;;
42988;SDS011;28622;43.716;20.668;2022-07-29T14:37:02;1.70;;;1.02;;
42988;SDS011;28622;43.716;20.668;2022-07-29T14:39:30;3.10;;;1.10;;
42988;SDS011;28622;43.716;20.668;2022-07-29T14:41:56;3.75;;;1.42;;
42988;SDS011;28622;43.716;20.668;2022-07-29T14:44:22;1.33;;;1.00;;
42988;SDS011;28622;43.716;20.668;2022-07-29T14:46:48;2.03;;;1.00;;
42988;SDS011;28622;43.716;20.668;2022-07-29T14:49:14;3.05;;;1.55;;
42988;SDS011;28622;43.716;20.668;2022-07-29T14:51:40;2.13;;;1.02;;
42988;SDS011;28622;43.716;20.668;2022-07-29T14:54:06;2.45;;;1.15;;
42988;SDS011;28622;43.716;20.668;2022-07-29T14:56:32;2.42;;;1.50;;
42988;SDS011;28622;43.716;20.668;2022-07-29T14:58:58;1.85;;;1.20;;
42988;SDS011;28622;43.716;20.668;2022-07-29T15:01:24;2.38;;;1.40;;
42988;SDS011;28622;43.716;20.668;2022-07-29T15:03:50;1.95;;;1.02;;
42988;SDS011;28622;43.716;20.668;2022-07-29T15:06:16;1.90;;;1.15;;
42988;SDS011;28622;43.716;20.668;2022-07-29T15:08:42;2.13;;;1.17;;
42988;SDS011;28622;43.716;20.668;2022-07-29T15:11:07;1.65;;;1.23;;
42988;SDS011;28622;43.716;20.668;2022-07-29T15:13:33;2.83;;;1.30;;
42988;SDS011;28622;43.716;20.668;2022-07-29T15:15:59;1.83;;;1.10;;
42988;SDS011;28622;43.716;20.668;2022-07-29T15:18:25;2.58;;;1.20;;
42988;SDS011;28622;43.716;20.668;2022-07-29T15:20:51;2.25;;;1.15;;
42988;SDS011;28622;43.716;20.668;2022-07-29T15:23:16;1.83;;;1.10;;
42988;SDS011;28622;43.716;20.668;2022-07-29T15:25:42;3.40;;;1.63;;
42988;SDS011;28622;43.716;20.668;2022-07-29T15:28:08;1.75;;;1.40;;
42988;SDS011;28622;43.716;20.668;2022-07-29T15:30:34;2.38;;;1.50;;
42988;SDS011;28622;43.716;20.668;2022-07-29T15:33:05;1.13;;;0.82;;
42988;SDS011;28622;43.716;20.668;2022-07-29T15:35:33;4.10;;;1.27;;
42988;SDS011;28622;43.716;20.668;2022-07-29T15:37:59;6.53;;;1.83;;
42988;SDS011;28622;43.716;20.668;2022-07-29T15:40:26;2.50;;;1.50;;
42988;SDS011;28622;43.716;20.668;2022-07-29T15:42:52;2.00;;;1.60;;